<?xml version="1.0" encoding="UTF-8" standalone="no" ?>
<gpx xmlns="http://www.topografix.com/GPX/1/1" xmlns:xsi="http://www.w3.org/2001/XMLSchema-instance" xsi:schemaLocation="http://www.topografix.com/GPX/1/1 http://www.topografix.com/GPX/1/1/gpx.xsd" version="1.1" creator="VisuGPX - https://www.visugpx.com">
  <metadata>
    <name>Etape en Corse </name>
    <desc><![CDATA[Etape 4 Plage O gradelle-Scandola
Etape 5 Carges- Sagone
Etape 6 Baie de Liscia]]></desc>
  </metadata>
  <wpt lat="43.22555" lon="6.44935">
    <ele>54</ele>
    <name><![CDATA[parking]]></name>
    <desc><![CDATA[16-MAI-15 9:26:59]]></desc>
    <cmt><![CDATA[16-MAI-15 9:26:59]]></cmt>
    <type><![CDATA[user]]></type>
  </wpt>
  <wpt lat="43.23505" lon="6.4006">
    <ele>423</ele>
    <name><![CDATA[parking02]]></name>
    <desc><![CDATA[16-MAI-15 12:19:33]]></desc>
    <cmt><![CDATA[16-MAI-15 12:19:33]]></cmt>
    <type><![CDATA[user]]></type>
  </wpt>
  <wpt lat="43.21304" lon="6.4631">
    <ele>42</ele>
    <name><![CDATA[piste]]></name>
    <desc><![CDATA[Chemin]]></desc>
    <cmt><![CDATA[Chemin]]></cmt>
    <type><![CDATA[user]]></type>
  </wpt>
  <trk>
    <name><![CDATA[Tracé 003 001]]></name>
    <trkseg>
      <trkpt lat="42.30356" lon="8.64756">
        <ele>7.04</ele>
        <time>2017-06-04T07:01:08Z</time>
      </trkpt>
      <trkpt lat="42.30342" lon="8.64763">
        <ele>7.6</ele>
        <time>2017-06-04T07:01:28Z</time>
      </trkpt>
      <trkpt lat="42.30337" lon="8.64763">
        <ele>7.31</ele>
        <time>2017-06-04T07:01:47Z</time>
      </trkpt>
      <trkpt lat="42.3032" lon="8.64753">
        <ele>6.61</ele>
        <time>2017-06-04T07:02:12Z</time>
      </trkpt>
      <trkpt lat="42.30301" lon="8.64735">
        <ele>3.78</ele>
        <time>2017-06-04T07:02:43Z</time>
      </trkpt>
      <trkpt lat="42.30301" lon="8.64735">
        <ele>3.05</ele>
        <time>2017-06-04T07:03:00Z</time>
      </trkpt>
      <trkpt lat="42.30301" lon="8.64739">
        <ele>2.71</ele>
        <time>2017-06-04T07:03:24Z</time>
      </trkpt>
      <trkpt lat="42.303" lon="8.64741">
        <ele>2.64</ele>
        <time>2017-06-04T07:03:48Z</time>
      </trkpt>
      <trkpt lat="42.30299" lon="8.64742">
        <ele>2.49</ele>
        <time>2017-06-04T07:04:14Z</time>
      </trkpt>
      <trkpt lat="42.30299" lon="8.64745">
        <ele>2.5</ele>
        <time>2017-06-04T07:04:41Z</time>
      </trkpt>
      <trkpt lat="42.303" lon="8.64742">
        <ele>2.55</ele>
        <time>2017-06-04T07:04:49Z</time>
      </trkpt>
      <trkpt lat="42.303" lon="8.64736">
        <ele>2.12</ele>
        <time>2017-06-04T07:05:20Z</time>
      </trkpt>
      <trkpt lat="42.30301" lon="8.64736">
        <ele>2.11</ele>
        <time>2017-06-04T07:05:54Z</time>
      </trkpt>
      <trkpt lat="42.30303" lon="8.64735">
        <ele>1.95</ele>
        <time>2017-06-04T07:06:15Z</time>
      </trkpt>
      <trkpt lat="42.30299" lon="8.64736">
        <ele>2.41</ele>
        <time>2017-06-04T07:06:37Z</time>
      </trkpt>
      <trkpt lat="42.30296" lon="8.64733">
        <ele>2.16</ele>
        <time>2017-06-04T07:06:59Z</time>
      </trkpt>
      <trkpt lat="42.30295" lon="8.64733">
        <ele>1.22</ele>
        <time>2017-06-04T07:07:21Z</time>
      </trkpt>
      <trkpt lat="42.30291" lon="8.64728">
        <ele>1.03</ele>
        <time>2017-06-04T07:07:31Z</time>
      </trkpt>
      <trkpt lat="42.3029" lon="8.64726">
        <ele>1</ele>
        <time>2017-06-04T07:07:33Z</time>
      </trkpt>
      <trkpt lat="42.30267" lon="8.6471">
        <ele>1.13</ele>
        <time>2017-06-04T07:07:50Z</time>
      </trkpt>
      <trkpt lat="42.30237" lon="8.64703">
        <ele>1.1</ele>
        <time>2017-06-04T07:08:12Z</time>
      </trkpt>
      <trkpt lat="42.30208" lon="8.64705">
        <ele>1.41</ele>
        <time>2017-06-04T07:08:30Z</time>
      </trkpt>
      <trkpt lat="42.30181" lon="8.64712">
        <ele>1.56</ele>
        <time>2017-06-04T07:08:49Z</time>
      </trkpt>
      <trkpt lat="42.30156" lon="8.64713">
        <ele>1.64</ele>
        <time>2017-06-04T07:09:14Z</time>
      </trkpt>
      <trkpt lat="42.3014" lon="8.6472">
        <ele>1.6</ele>
        <time>2017-06-04T07:09:42Z</time>
      </trkpt>
      <trkpt lat="42.30132" lon="8.64724">
        <ele>1.67</ele>
        <time>2017-06-04T07:09:53Z</time>
      </trkpt>
      <trkpt lat="42.30119" lon="8.64727">
        <ele>1.53</ele>
        <time>2017-06-04T07:10:18Z</time>
      </trkpt>
      <trkpt lat="42.30114" lon="8.64725">
        <ele>1.7</ele>
        <time>2017-06-04T07:10:27Z</time>
      </trkpt>
      <trkpt lat="42.30108" lon="8.6472">
        <ele>1.57</ele>
        <time>2017-06-04T07:10:36Z</time>
      </trkpt>
      <trkpt lat="42.30093" lon="8.64689">
        <ele>2</ele>
        <time>2017-06-04T07:10:56Z</time>
      </trkpt>
      <trkpt lat="42.30083" lon="8.64665">
        <ele>1.73</ele>
        <time>2017-06-04T07:11:15Z</time>
      </trkpt>
      <trkpt lat="42.30075" lon="8.64639">
        <ele>1.86</ele>
        <time>2017-06-04T07:11:34Z</time>
      </trkpt>
      <trkpt lat="42.30064" lon="8.64624">
        <ele>2.07</ele>
        <time>2017-06-04T07:11:56Z</time>
      </trkpt>
      <trkpt lat="42.30048" lon="8.64605">
        <ele>2.27</ele>
        <time>2017-06-04T07:12:17Z</time>
      </trkpt>
      <trkpt lat="42.30031" lon="8.64575">
        <ele>2.47</ele>
        <time>2017-06-04T07:12:39Z</time>
      </trkpt>
      <trkpt lat="42.30025" lon="8.64549">
        <ele>2.46</ele>
        <time>2017-06-04T07:12:58Z</time>
      </trkpt>
      <trkpt lat="42.30027" lon="8.64524">
        <ele>2.2</ele>
        <time>2017-06-04T07:13:12Z</time>
      </trkpt>
      <trkpt lat="42.30026" lon="8.64489">
        <ele>2.32</ele>
        <time>2017-06-04T07:13:31Z</time>
      </trkpt>
      <trkpt lat="42.30032" lon="8.64466">
        <ele>1.74</ele>
        <time>2017-06-04T07:13:47Z</time>
      </trkpt>
      <trkpt lat="42.30038" lon="8.64436">
        <ele>1.8</ele>
        <time>2017-06-04T07:14:05Z</time>
      </trkpt>
      <trkpt lat="42.30039" lon="8.64435">
        <ele>1.89</ele>
        <time>2017-06-04T07:14:06Z</time>
      </trkpt>
      <trkpt lat="42.30052" lon="8.64425">
        <ele>2.44</ele>
        <time>2017-06-04T07:14:16Z</time>
      </trkpt>
      <trkpt lat="42.30062" lon="8.64418">
        <ele>2.39</ele>
        <time>2017-06-04T07:14:23Z</time>
      </trkpt>
      <trkpt lat="42.30071" lon="8.6442">
        <ele>2.18</ele>
        <time>2017-06-04T07:14:36Z</time>
      </trkpt>
      <trkpt lat="42.3009" lon="8.64436">
        <ele>2.43</ele>
        <time>2017-06-04T07:15:26Z</time>
      </trkpt>
      <trkpt lat="42.30096" lon="8.64451">
        <ele>2.33</ele>
        <time>2017-06-04T07:16:12Z</time>
      </trkpt>
      <trkpt lat="42.30052" lon="8.6431">
        <ele>2.05</ele>
        <time>2017-06-04T07:16:58Z</time>
      </trkpt>
      <trkpt lat="42.3005" lon="8.64302">
        <ele>1.81</ele>
        <time>2017-06-04T07:17:12Z</time>
      </trkpt>
      <trkpt lat="42.3005" lon="8.64301">
        <ele>1.74</ele>
        <time>2017-06-04T07:17:14Z</time>
      </trkpt>
      <trkpt lat="42.3005" lon="8.64316">
        <ele>2.32</ele>
        <time>2017-06-04T07:17:35Z</time>
      </trkpt>
      <trkpt lat="42.30038" lon="8.6432">
        <ele>2.18</ele>
        <time>2017-06-04T07:17:57Z</time>
      </trkpt>
      <trkpt lat="42.30021" lon="8.6431">
        <ele>2.42</ele>
        <time>2017-06-04T07:18:14Z</time>
      </trkpt>
      <trkpt lat="42.30014" lon="8.64278">
        <ele>2.52</ele>
        <time>2017-06-04T07:18:32Z</time>
      </trkpt>
      <trkpt lat="42.30015" lon="8.64257">
        <ele>2.67</ele>
        <time>2017-06-04T07:18:50Z</time>
      </trkpt>
      <trkpt lat="42.30011" lon="8.64247">
        <ele>3.59</ele>
        <time>2017-06-04T07:19:00Z</time>
      </trkpt>
      <trkpt lat="42.29987" lon="8.64237">
        <ele>4.32</ele>
        <time>2017-06-04T07:19:22Z</time>
      </trkpt>
      <trkpt lat="42.29967" lon="8.64221">
        <ele>3.74</ele>
        <time>2017-06-04T07:19:40Z</time>
      </trkpt>
      <trkpt lat="42.29952" lon="8.64192">
        <ele>3.19</ele>
        <time>2017-06-04T07:19:58Z</time>
      </trkpt>
      <trkpt lat="42.29936" lon="8.64166">
        <ele>3.41</ele>
        <time>2017-06-04T07:20:15Z</time>
      </trkpt>
      <trkpt lat="42.29924" lon="8.64134">
        <ele>3.38</ele>
        <time>2017-06-04T07:20:34Z</time>
      </trkpt>
      <trkpt lat="42.29918" lon="8.64093">
        <ele>2.82</ele>
        <time>2017-06-04T07:20:54Z</time>
      </trkpt>
      <trkpt lat="42.2991" lon="8.64054">
        <ele>4.02</ele>
        <time>2017-06-04T07:21:13Z</time>
      </trkpt>
      <trkpt lat="42.29913" lon="8.64022">
        <ele>3.64</ele>
        <time>2017-06-04T07:21:29Z</time>
      </trkpt>
      <trkpt lat="42.29919" lon="8.63992">
        <ele>3.2</ele>
        <time>2017-06-04T07:21:46Z</time>
      </trkpt>
      <trkpt lat="42.29927" lon="8.63972">
        <ele>2.83</ele>
        <time>2017-06-04T07:22:01Z</time>
      </trkpt>
      <trkpt lat="42.29931" lon="8.63944">
        <ele>3.59</ele>
        <time>2017-06-04T07:22:17Z</time>
      </trkpt>
      <trkpt lat="42.29936" lon="8.63915">
        <ele>3.53</ele>
        <time>2017-06-04T07:22:32Z</time>
      </trkpt>
      <trkpt lat="42.29944" lon="8.63884">
        <ele>2.77</ele>
        <time>2017-06-04T07:22:49Z</time>
      </trkpt>
      <trkpt lat="42.29957" lon="8.63864">
        <ele>2.02</ele>
        <time>2017-06-04T07:23:05Z</time>
      </trkpt>
      <trkpt lat="42.29974" lon="8.63841">
        <ele>2</ele>
        <time>2017-06-04T07:23:27Z</time>
      </trkpt>
      <trkpt lat="42.29989" lon="8.63814">
        <ele>2.18</ele>
        <time>2017-06-04T07:23:45Z</time>
      </trkpt>
      <trkpt lat="42.3" lon="8.63787">
        <ele>2.36</ele>
        <time>2017-06-04T07:24:00Z</time>
      </trkpt>
      <trkpt lat="42.3001" lon="8.63763">
        <ele>2.5</ele>
        <time>2017-06-04T07:24:13Z</time>
      </trkpt>
      <trkpt lat="42.30022" lon="8.63732">
        <ele>2.56</ele>
        <time>2017-06-04T07:24:28Z</time>
      </trkpt>
      <trkpt lat="42.30036" lon="8.63696">
        <ele>2.61</ele>
        <time>2017-06-04T07:24:45Z</time>
      </trkpt>
      <trkpt lat="42.30053" lon="8.63663">
        <ele>2.15</ele>
        <time>2017-06-04T07:25:02Z</time>
      </trkpt>
      <trkpt lat="42.3007" lon="8.63634">
        <ele>2.18</ele>
        <time>2017-06-04T07:25:17Z</time>
      </trkpt>
      <trkpt lat="42.30087" lon="8.6361">
        <ele>2.17</ele>
        <time>2017-06-04T07:25:32Z</time>
      </trkpt>
      <trkpt lat="42.30109" lon="8.63578">
        <ele>1.89</ele>
        <time>2017-06-04T07:25:50Z</time>
      </trkpt>
      <trkpt lat="42.30129" lon="8.63553">
        <ele>1.41</ele>
        <time>2017-06-04T07:26:04Z</time>
      </trkpt>
      <trkpt lat="42.30151" lon="8.63524">
        <ele>1.66</ele>
        <time>2017-06-04T07:26:21Z</time>
      </trkpt>
      <trkpt lat="42.30172" lon="8.63497">
        <ele>1.03</ele>
        <time>2017-06-04T07:26:38Z</time>
      </trkpt>
      <trkpt lat="42.30189" lon="8.63467">
        <ele>1.16</ele>
        <time>2017-06-04T07:26:52Z</time>
      </trkpt>
      <trkpt lat="42.30206" lon="8.63435">
        <ele>1.07</ele>
        <time>2017-06-04T07:27:09Z</time>
      </trkpt>
      <trkpt lat="42.30221" lon="8.63405">
        <ele>1.06</ele>
        <time>2017-06-04T07:27:24Z</time>
      </trkpt>
      <trkpt lat="42.30238" lon="8.63377">
        <ele>1.32</ele>
        <time>2017-06-04T07:27:39Z</time>
      </trkpt>
      <trkpt lat="42.30253" lon="8.63343">
        <ele>1.26</ele>
        <time>2017-06-04T07:27:56Z</time>
      </trkpt>
      <trkpt lat="42.3027" lon="8.63307">
        <ele>1.38</ele>
        <time>2017-06-04T07:28:14Z</time>
      </trkpt>
      <trkpt lat="42.30287" lon="8.63278">
        <ele>1.6</ele>
        <time>2017-06-04T07:28:29Z</time>
      </trkpt>
      <trkpt lat="42.30301" lon="8.63252">
        <ele>1.38</ele>
        <time>2017-06-04T07:28:42Z</time>
      </trkpt>
      <trkpt lat="42.30314" lon="8.63222">
        <ele>1.16</ele>
        <time>2017-06-04T07:28:56Z</time>
      </trkpt>
      <trkpt lat="42.30328" lon="8.63189">
        <ele>1.34</ele>
        <time>2017-06-04T07:29:11Z</time>
      </trkpt>
      <trkpt lat="42.30345" lon="8.63161">
        <ele>1.38</ele>
        <time>2017-06-04T07:29:25Z</time>
      </trkpt>
      <trkpt lat="42.30357" lon="8.63133">
        <ele>1.54</ele>
        <time>2017-06-04T07:29:38Z</time>
      </trkpt>
      <trkpt lat="42.30366" lon="8.63105">
        <ele>1.58</ele>
        <time>2017-06-04T07:29:51Z</time>
      </trkpt>
      <trkpt lat="42.30378" lon="8.63072">
        <ele>1.46</ele>
        <time>2017-06-04T07:30:06Z</time>
      </trkpt>
      <trkpt lat="42.30386" lon="8.63043">
        <ele>1.46</ele>
        <time>2017-06-04T07:30:18Z</time>
      </trkpt>
      <trkpt lat="42.30393" lon="8.63014">
        <ele>1.82</ele>
        <time>2017-06-04T07:30:31Z</time>
      </trkpt>
      <trkpt lat="42.30401" lon="8.6298">
        <ele>1.62</ele>
        <time>2017-06-04T07:30:45Z</time>
      </trkpt>
      <trkpt lat="42.30409" lon="8.62949">
        <ele>1.59</ele>
        <time>2017-06-04T07:31:00Z</time>
      </trkpt>
      <trkpt lat="42.30418" lon="8.62923">
        <ele>1.42</ele>
        <time>2017-06-04T07:31:12Z</time>
      </trkpt>
      <trkpt lat="42.30421" lon="8.62914">
        <ele>1.42</ele>
        <time>2017-06-04T07:31:16Z</time>
      </trkpt>
      <trkpt lat="42.30432" lon="8.62885">
        <ele>1.29</ele>
        <time>2017-06-04T07:31:30Z</time>
      </trkpt>
      <trkpt lat="42.30435" lon="8.62878">
        <ele>1.33</ele>
        <time>2017-06-04T07:31:33Z</time>
      </trkpt>
      <trkpt lat="42.30449" lon="8.62856">
        <ele>1.29</ele>
        <time>2017-06-04T07:31:45Z</time>
      </trkpt>
      <trkpt lat="42.30458" lon="8.62829">
        <ele>1.4</ele>
        <time>2017-06-04T07:31:58Z</time>
      </trkpt>
      <trkpt lat="42.30458" lon="8.62825">
        <ele>1.45</ele>
        <time>2017-06-04T07:32:00Z</time>
      </trkpt>
      <trkpt lat="42.3046" lon="8.62821">
        <ele>1.64</ele>
        <time>2017-06-04T07:32:04Z</time>
      </trkpt>
      <trkpt lat="42.30471" lon="8.62781">
        <ele>1.71</ele>
        <time>2017-06-04T07:32:22Z</time>
      </trkpt>
      <trkpt lat="42.30479" lon="8.62752">
        <ele>1.73</ele>
        <time>2017-06-04T07:32:36Z</time>
      </trkpt>
      <trkpt lat="42.30484" lon="8.62737">
        <ele>1.67</ele>
        <time>2017-06-04T07:32:43Z</time>
      </trkpt>
      <trkpt lat="42.30487" lon="8.62708">
        <ele>1.35</ele>
        <time>2017-06-04T07:32:57Z</time>
      </trkpt>
      <trkpt lat="42.30488" lon="8.62678">
        <ele>1.77</ele>
        <time>2017-06-04T07:33:11Z</time>
      </trkpt>
      <trkpt lat="42.30491" lon="8.62649">
        <ele>1.78</ele>
        <time>2017-06-04T07:33:25Z</time>
      </trkpt>
      <trkpt lat="42.30497" lon="8.62622">
        <ele>1.69</ele>
        <time>2017-06-04T07:33:38Z</time>
      </trkpt>
      <trkpt lat="42.30499" lon="8.62613">
        <ele>1.64</ele>
        <time>2017-06-04T07:33:43Z</time>
      </trkpt>
      <trkpt lat="42.305" lon="8.62606">
        <ele>1.68</ele>
        <time>2017-06-04T07:33:47Z</time>
      </trkpt>
      <trkpt lat="42.30506" lon="8.62582">
        <ele>1.63</ele>
        <time>2017-06-04T07:33:58Z</time>
      </trkpt>
      <trkpt lat="42.30511" lon="8.62548">
        <ele>1.52</ele>
        <time>2017-06-04T07:34:14Z</time>
      </trkpt>
      <trkpt lat="42.30516" lon="8.62523">
        <ele>1.6</ele>
        <time>2017-06-04T07:34:27Z</time>
      </trkpt>
      <trkpt lat="42.30522" lon="8.62491">
        <ele>1.4</ele>
        <time>2017-06-04T07:34:43Z</time>
      </trkpt>
      <trkpt lat="42.3053" lon="8.62449">
        <ele>1.15</ele>
        <time>2017-06-04T07:35:02Z</time>
      </trkpt>
      <trkpt lat="42.30535" lon="8.62419">
        <ele>1.12</ele>
        <time>2017-06-04T07:35:15Z</time>
      </trkpt>
      <trkpt lat="42.30536" lon="8.62391">
        <ele>0.91</ele>
        <time>2017-06-04T07:35:28Z</time>
      </trkpt>
      <trkpt lat="42.30543" lon="8.62368">
        <ele>0.99</ele>
        <time>2017-06-04T07:35:39Z</time>
      </trkpt>
      <trkpt lat="42.30555" lon="8.62336">
        <ele>0.81</ele>
        <time>2017-06-04T07:35:55Z</time>
      </trkpt>
      <trkpt lat="42.30556" lon="8.62305">
        <ele>1.19</ele>
        <time>2017-06-04T07:36:09Z</time>
      </trkpt>
      <trkpt lat="42.30557" lon="8.6227">
        <ele>0.93</ele>
        <time>2017-06-04T07:36:24Z</time>
      </trkpt>
      <trkpt lat="42.30558" lon="8.62238">
        <ele>1</ele>
        <time>2017-06-04T07:36:38Z</time>
      </trkpt>
      <trkpt lat="42.30561" lon="8.62206">
        <ele>0.6</ele>
        <time>2017-06-04T07:36:52Z</time>
      </trkpt>
      <trkpt lat="42.30568" lon="8.62171">
        <ele>0.66</ele>
        <time>2017-06-04T07:37:07Z</time>
      </trkpt>
      <trkpt lat="42.30575" lon="8.62133">
        <ele>0.77</ele>
        <time>2017-06-04T07:37:24Z</time>
      </trkpt>
      <trkpt lat="42.30577" lon="8.62099">
        <ele>0.66</ele>
        <time>2017-06-04T07:37:38Z</time>
      </trkpt>
      <trkpt lat="42.30578" lon="8.62091">
        <ele>0.58</ele>
        <time>2017-06-04T07:37:42Z</time>
      </trkpt>
      <trkpt lat="42.3058" lon="8.62053">
        <ele>0.71</ele>
        <time>2017-06-04T07:37:59Z</time>
      </trkpt>
      <trkpt lat="42.30587" lon="8.62015">
        <ele>0.55</ele>
        <time>2017-06-04T07:38:16Z</time>
      </trkpt>
      <trkpt lat="42.30587" lon="8.61985">
        <ele>0.64</ele>
        <time>2017-06-04T07:38:30Z</time>
      </trkpt>
      <trkpt lat="42.30589" lon="8.61967">
        <ele>0.6</ele>
        <time>2017-06-04T07:38:38Z</time>
      </trkpt>
      <trkpt lat="42.3059" lon="8.61929">
        <ele>0.77</ele>
        <time>2017-06-04T07:38:54Z</time>
      </trkpt>
      <trkpt lat="42.30587" lon="8.61897">
        <ele>0.73</ele>
        <time>2017-06-04T07:39:08Z</time>
      </trkpt>
      <trkpt lat="42.30582" lon="8.61871">
        <ele>0.77</ele>
        <time>2017-06-04T07:39:21Z</time>
      </trkpt>
      <trkpt lat="42.30583" lon="8.61863">
        <ele>0.71</ele>
        <time>2017-06-04T07:39:25Z</time>
      </trkpt>
      <trkpt lat="42.30585" lon="8.61831">
        <ele>0.54</ele>
        <time>2017-06-04T07:39:41Z</time>
      </trkpt>
      <trkpt lat="42.30586" lon="8.618">
        <ele>0.54</ele>
        <time>2017-06-04T07:39:54Z</time>
      </trkpt>
      <trkpt lat="42.30584" lon="8.61764">
        <ele>0.43</ele>
        <time>2017-06-04T07:40:11Z</time>
      </trkpt>
      <trkpt lat="42.30582" lon="8.61736">
        <ele>0.36</ele>
        <time>2017-06-04T07:40:24Z</time>
      </trkpt>
      <trkpt lat="42.30582" lon="8.61707">
        <ele>0.36</ele>
        <time>2017-06-04T07:40:37Z</time>
      </trkpt>
      <trkpt lat="42.30583" lon="8.6167">
        <ele>0.36</ele>
        <time>2017-06-04T07:40:53Z</time>
      </trkpt>
      <trkpt lat="42.30583" lon="8.61646">
        <ele>0.42</ele>
        <time>2017-06-04T07:41:04Z</time>
      </trkpt>
      <trkpt lat="42.30583" lon="8.6164">
        <ele>0.31</ele>
        <time>2017-06-04T07:41:07Z</time>
      </trkpt>
      <trkpt lat="42.30583" lon="8.61609">
        <ele>0.1</ele>
        <time>2017-06-04T07:41:22Z</time>
      </trkpt>
      <trkpt lat="42.30585" lon="8.61573">
        <ele>0.17</ele>
        <time>2017-06-04T07:41:38Z</time>
      </trkpt>
      <trkpt lat="42.30584" lon="8.61535">
        <ele>0.4</ele>
        <time>2017-06-04T07:41:54Z</time>
      </trkpt>
      <trkpt lat="42.30584" lon="8.6151">
        <ele>0.32</ele>
        <time>2017-06-04T07:42:05Z</time>
      </trkpt>
      <trkpt lat="42.30584" lon="8.61496">
        <ele>0.33</ele>
        <time>2017-06-04T07:42:12Z</time>
      </trkpt>
      <trkpt lat="42.30583" lon="8.61462">
        <time>2017-06-04T07:42:28Z</time>
      </trkpt>
      <trkpt lat="42.30584" lon="8.61429">
        <ele>-0.04</ele>
        <time>2017-06-04T07:42:43Z</time>
      </trkpt>
      <trkpt lat="42.30588" lon="8.61396">
        <time>2017-06-04T07:42:59Z</time>
      </trkpt>
      <trkpt lat="42.30592" lon="8.61371">
        <ele>-0.3</ele>
        <time>2017-06-04T07:43:11Z</time>
      </trkpt>
      <trkpt lat="42.30594" lon="8.61351">
        <ele>-0.47</ele>
        <time>2017-06-04T07:43:21Z</time>
      </trkpt>
      <trkpt lat="42.30597" lon="8.61315">
        <ele>-0.49</ele>
        <time>2017-06-04T07:43:37Z</time>
      </trkpt>
      <trkpt lat="42.30598" lon="8.61283">
        <ele>-0.45</ele>
        <time>2017-06-04T07:43:52Z</time>
      </trkpt>
      <trkpt lat="42.30588" lon="8.61253">
        <time>2017-06-04T07:44:07Z</time>
      </trkpt>
      <trkpt lat="42.30579" lon="8.61222">
        <ele>-0.23</ele>
        <time>2017-06-04T07:44:23Z</time>
      </trkpt>
      <trkpt lat="42.30572" lon="8.61193">
        <ele>-0.54</ele>
        <time>2017-06-04T07:44:38Z</time>
      </trkpt>
      <trkpt lat="42.30571" lon="8.6119">
        <ele>-0.54</ele>
        <time>2017-06-04T07:44:40Z</time>
      </trkpt>
      <trkpt lat="42.30568" lon="8.61155">
        <ele>-0.72</ele>
        <time>2017-06-04T07:44:57Z</time>
      </trkpt>
      <trkpt lat="42.30566" lon="8.61124">
        <ele>-0.44</ele>
        <time>2017-06-04T07:45:13Z</time>
      </trkpt>
      <trkpt lat="42.30565" lon="8.61095">
        <ele>-0.8</ele>
        <time>2017-06-04T07:45:28Z</time>
      </trkpt>
      <trkpt lat="42.30563" lon="8.61066">
        <ele>-0.87</ele>
        <time>2017-06-04T07:45:43Z</time>
      </trkpt>
      <trkpt lat="42.30563" lon="8.61035">
        <ele>-1.18</ele>
        <time>2017-06-04T07:45:58Z</time>
      </trkpt>
      <trkpt lat="42.30563" lon="8.61005">
        <ele>-1</ele>
        <time>2017-06-04T07:46:12Z</time>
      </trkpt>
      <trkpt lat="42.30561" lon="8.60974">
        <ele>-1.11</ele>
        <time>2017-06-04T07:46:27Z</time>
      </trkpt>
      <trkpt lat="42.3056" lon="8.60947">
        <ele>-1.15</ele>
        <time>2017-06-04T07:46:40Z</time>
      </trkpt>
      <trkpt lat="42.30555" lon="8.60927">
        <ele>-0.69</ele>
        <time>2017-06-04T07:46:51Z</time>
      </trkpt>
      <trkpt lat="42.30552" lon="8.60899">
        <ele>-1.36</ele>
        <time>2017-06-04T07:47:07Z</time>
      </trkpt>
      <trkpt lat="42.30554" lon="8.60886">
        <ele>-1.29</ele>
        <time>2017-06-04T07:47:14Z</time>
      </trkpt>
      <trkpt lat="42.30555" lon="8.60875">
        <ele>-1.3</ele>
        <time>2017-06-04T07:47:20Z</time>
      </trkpt>
      <trkpt lat="42.30553" lon="8.60841">
        <ele>-1.07</ele>
        <time>2017-06-04T07:47:37Z</time>
      </trkpt>
      <trkpt lat="42.30552" lon="8.60808">
        <ele>-1.56</ele>
        <time>2017-06-04T07:47:53Z</time>
      </trkpt>
      <trkpt lat="42.3055" lon="8.60796">
        <ele>-1.24</ele>
        <time>2017-06-04T07:48:00Z</time>
      </trkpt>
      <trkpt lat="42.30546" lon="8.6078">
        <ele>-0.94</ele>
        <time>2017-06-04T07:48:09Z</time>
      </trkpt>
      <trkpt lat="42.30542" lon="8.60756">
        <ele>-1.58</ele>
        <time>2017-06-04T07:48:24Z</time>
      </trkpt>
      <trkpt lat="42.30542" lon="8.60733">
        <ele>-1.48</ele>
        <time>2017-06-04T07:48:38Z</time>
      </trkpt>
      <trkpt lat="42.30541" lon="8.60717">
        <ele>-1.84</ele>
        <time>2017-06-04T07:48:47Z</time>
      </trkpt>
      <trkpt lat="42.3054" lon="8.60691">
        <ele>-1.83</ele>
        <time>2017-06-04T07:49:01Z</time>
      </trkpt>
      <trkpt lat="42.30538" lon="8.60665">
        <ele>-1.86</ele>
        <time>2017-06-04T07:49:16Z</time>
      </trkpt>
      <trkpt lat="42.30534" lon="8.60642">
        <ele>-1.72</ele>
        <time>2017-06-04T07:49:29Z</time>
      </trkpt>
      <trkpt lat="42.30533" lon="8.60617">
        <ele>-1.76</ele>
        <time>2017-06-04T07:49:43Z</time>
      </trkpt>
      <trkpt lat="42.30537" lon="8.60605">
        <ele>-2.23</ele>
        <time>2017-06-04T07:49:55Z</time>
      </trkpt>
      <trkpt lat="42.30538" lon="8.60594">
        <ele>-2.2</ele>
        <time>2017-06-04T07:50:03Z</time>
      </trkpt>
      <trkpt lat="42.30534" lon="8.60576">
        <ele>-1.71</ele>
        <time>2017-06-04T07:50:15Z</time>
      </trkpt>
      <trkpt lat="42.30533" lon="8.60573">
        <ele>-1.59</ele>
        <time>2017-06-04T07:50:17Z</time>
      </trkpt>
      <trkpt lat="42.30527" lon="8.60568">
        <ele>-1.11</ele>
        <time>2017-06-04T07:50:23Z</time>
      </trkpt>
      <trkpt lat="42.30518" lon="8.60574">
        <ele>-0.85</ele>
        <time>2017-06-04T07:50:40Z</time>
      </trkpt>
      <trkpt lat="42.30519" lon="8.60584">
        <ele>-0.82</ele>
        <time>2017-06-04T07:50:54Z</time>
      </trkpt>
      <trkpt lat="42.30513" lon="8.60602">
        <ele>-0.88</ele>
        <time>2017-06-04T07:51:11Z</time>
      </trkpt>
      <trkpt lat="42.30512" lon="8.60608">
        <ele>-0.86</ele>
        <time>2017-06-04T07:51:16Z</time>
      </trkpt>
      <trkpt lat="42.30512" lon="8.60619">
        <ele>-0.79</ele>
        <time>2017-06-04T07:51:23Z</time>
      </trkpt>
      <trkpt lat="42.30517" lon="8.60648">
        <ele>-1.02</ele>
        <time>2017-06-04T07:51:36Z</time>
      </trkpt>
      <trkpt lat="42.30522" lon="8.60668">
        <ele>-0.97</ele>
        <time>2017-06-04T07:51:45Z</time>
      </trkpt>
      <trkpt lat="42.30527" lon="8.60684">
        <ele>-0.84</ele>
        <time>2017-06-04T07:51:52Z</time>
      </trkpt>
      <trkpt lat="42.30537" lon="8.60706">
        <ele>-0.81</ele>
        <time>2017-06-04T07:52:03Z</time>
      </trkpt>
      <trkpt lat="42.30543" lon="8.60723">
        <ele>-0.53</ele>
        <time>2017-06-04T07:52:13Z</time>
      </trkpt>
      <trkpt lat="42.30545" lon="8.60732">
        <ele>-0.61</ele>
        <time>2017-06-04T07:52:19Z</time>
      </trkpt>
      <trkpt lat="42.30546" lon="8.60739">
        <ele>-0.69</ele>
        <time>2017-06-04T07:52:23Z</time>
      </trkpt>
      <trkpt lat="42.30551" lon="8.60761">
        <ele>-0.81</ele>
        <time>2017-06-04T07:52:34Z</time>
      </trkpt>
      <trkpt lat="42.30553" lon="8.60765">
        <ele>-0.85</ele>
        <time>2017-06-04T07:52:37Z</time>
      </trkpt>
      <trkpt lat="42.30569" lon="8.60787">
        <ele>-0.92</ele>
        <time>2017-06-04T07:52:52Z</time>
      </trkpt>
      <trkpt lat="42.30573" lon="8.60806">
        <ele>-0.92</ele>
        <time>2017-06-04T07:53:00Z</time>
      </trkpt>
      <trkpt lat="42.30572" lon="8.60846">
        <ele>-0.93</ele>
        <time>2017-06-04T07:53:14Z</time>
      </trkpt>
      <trkpt lat="42.30569" lon="8.60887">
        <ele>-0.96</ele>
        <time>2017-06-04T07:53:28Z</time>
      </trkpt>
      <trkpt lat="42.30565" lon="8.60923">
        <ele>-1.08</ele>
        <time>2017-06-04T07:53:40Z</time>
      </trkpt>
      <trkpt lat="42.30566" lon="8.60968">
        <ele>-1.19</ele>
        <time>2017-06-04T07:53:54Z</time>
      </trkpt>
      <trkpt lat="42.30564" lon="8.61004">
        <ele>-1.13</ele>
        <time>2017-06-04T07:54:06Z</time>
      </trkpt>
      <trkpt lat="42.30568" lon="8.61054">
        <ele>-1.13</ele>
        <time>2017-06-04T07:54:21Z</time>
      </trkpt>
      <trkpt lat="42.30566" lon="8.61099">
        <ele>-0.94</ele>
        <time>2017-06-04T07:54:35Z</time>
      </trkpt>
      <trkpt lat="42.30571" lon="8.61145">
        <ele>-1.13</ele>
        <time>2017-06-04T07:54:49Z</time>
      </trkpt>
      <trkpt lat="42.30572" lon="8.6118">
        <ele>-1.19</ele>
        <time>2017-06-04T07:55:01Z</time>
      </trkpt>
      <trkpt lat="42.30578" lon="8.61225">
        <ele>-1.19</ele>
        <time>2017-06-04T07:55:15Z</time>
      </trkpt>
      <trkpt lat="42.30588" lon="8.61263">
        <ele>-0.86</ele>
        <time>2017-06-04T07:55:28Z</time>
      </trkpt>
      <trkpt lat="42.30589" lon="8.61301">
        <ele>-0.81</ele>
        <time>2017-06-04T07:55:40Z</time>
      </trkpt>
      <trkpt lat="42.30591" lon="8.61346">
        <ele>-1.02</ele>
        <time>2017-06-04T07:55:54Z</time>
      </trkpt>
      <trkpt lat="42.30591" lon="8.61393">
        <ele>-1.15</ele>
        <time>2017-06-04T07:56:08Z</time>
      </trkpt>
      <trkpt lat="42.30597" lon="8.61436">
        <ele>-1.03</ele>
        <time>2017-06-04T07:56:21Z</time>
      </trkpt>
      <trkpt lat="42.30599" lon="8.61475">
        <ele>-0.9</ele>
        <time>2017-06-04T07:56:34Z</time>
      </trkpt>
      <trkpt lat="42.30604" lon="8.61517">
        <ele>-0.91</ele>
        <time>2017-06-04T07:56:48Z</time>
      </trkpt>
      <trkpt lat="42.30609" lon="8.61563">
        <ele>-0.73</ele>
        <time>2017-06-04T07:57:02Z</time>
      </trkpt>
      <trkpt lat="42.30613" lon="8.61617">
        <ele>-0.83</ele>
        <time>2017-06-04T07:57:17Z</time>
      </trkpt>
      <trkpt lat="42.3062" lon="8.61645">
        <ele>-0.75</ele>
        <time>2017-06-04T07:57:27Z</time>
      </trkpt>
      <trkpt lat="42.30625" lon="8.61689">
        <ele>-0.74</ele>
        <time>2017-06-04T07:57:40Z</time>
      </trkpt>
      <trkpt lat="42.30629" lon="8.6173">
        <ele>-0.68</ele>
        <time>2017-06-04T07:57:53Z</time>
      </trkpt>
      <trkpt lat="42.30623" lon="8.61767">
        <ele>-0.53</ele>
        <time>2017-06-04T07:58:05Z</time>
      </trkpt>
      <trkpt lat="42.30612" lon="8.61806">
        <ele>-0.41</ele>
        <time>2017-06-04T07:58:18Z</time>
      </trkpt>
      <trkpt lat="42.30605" lon="8.61855">
        <ele>-0.31</ele>
        <time>2017-06-04T07:58:33Z</time>
      </trkpt>
      <trkpt lat="42.306" lon="8.61876">
        <ele>-0.38</ele>
        <time>2017-06-04T07:58:40Z</time>
      </trkpt>
      <trkpt lat="42.306" lon="8.6192">
        <ele>-0.46</ele>
        <time>2017-06-04T07:58:54Z</time>
      </trkpt>
      <trkpt lat="42.30606" lon="8.61953">
        <ele>-0.29</ele>
        <time>2017-06-04T07:59:05Z</time>
      </trkpt>
      <trkpt lat="42.3061" lon="8.61989">
        <ele>-0.15</ele>
        <time>2017-06-04T07:59:17Z</time>
      </trkpt>
      <trkpt lat="42.30615" lon="8.62028">
        <ele>-0.31</ele>
        <time>2017-06-04T07:59:28Z</time>
      </trkpt>
      <trkpt lat="42.30614" lon="8.62068">
        <ele>-0.26</ele>
        <time>2017-06-04T07:59:41Z</time>
      </trkpt>
      <trkpt lat="42.30614" lon="8.62107">
        <ele>-0.03</ele>
        <time>2017-06-04T07:59:54Z</time>
      </trkpt>
      <trkpt lat="42.30611" lon="8.6215">
        <ele>-0.23</ele>
        <time>2017-06-04T08:00:08Z</time>
      </trkpt>
      <trkpt lat="42.30606" lon="8.62189">
        <ele>-0.36</ele>
        <time>2017-06-04T08:00:21Z</time>
      </trkpt>
      <trkpt lat="42.30599" lon="8.62226">
        <ele>-0.27</ele>
        <time>2017-06-04T08:00:33Z</time>
      </trkpt>
      <trkpt lat="42.30592" lon="8.62264">
        <ele>-0.29</ele>
        <time>2017-06-04T08:00:45Z</time>
      </trkpt>
      <trkpt lat="42.30585" lon="8.62307">
        <ele>-0.19</ele>
        <time>2017-06-04T08:00:58Z</time>
      </trkpt>
      <trkpt lat="42.30581" lon="8.62348">
        <ele>-0.24</ele>
        <time>2017-06-04T08:01:11Z</time>
      </trkpt>
      <trkpt lat="42.30574" lon="8.62389">
        <time>2017-06-04T08:01:25Z</time>
      </trkpt>
      <trkpt lat="42.30563" lon="8.62425">
        <ele>0.04</ele>
        <time>2017-06-04T08:01:40Z</time>
      </trkpt>
      <trkpt lat="42.30554" lon="8.62459">
        <ele>-0.21</ele>
        <time>2017-06-04T08:01:52Z</time>
      </trkpt>
      <trkpt lat="42.30549" lon="8.62496">
        <ele>-0.12</ele>
        <time>2017-06-04T08:02:05Z</time>
      </trkpt>
      <trkpt lat="42.30539" lon="8.62531">
        <ele>-0.03</ele>
        <time>2017-06-04T08:02:17Z</time>
      </trkpt>
      <trkpt lat="42.30531" lon="8.62569">
        <ele>-0.04</ele>
        <time>2017-06-04T08:02:30Z</time>
      </trkpt>
      <trkpt lat="42.30519" lon="8.626">
        <ele>-0.17</ele>
        <time>2017-06-04T08:02:43Z</time>
      </trkpt>
      <trkpt lat="42.30518" lon="8.62605">
        <ele>-0.19</ele>
        <time>2017-06-04T08:02:45Z</time>
      </trkpt>
      <trkpt lat="42.30516" lon="8.62615">
        <ele>-0.22</ele>
        <time>2017-06-04T08:02:49Z</time>
      </trkpt>
      <trkpt lat="42.305" lon="8.62657">
        <ele>-0.05</ele>
        <time>2017-06-04T08:03:05Z</time>
      </trkpt>
      <trkpt lat="42.30489" lon="8.62695">
        <ele>-0.19</ele>
        <time>2017-06-04T08:03:19Z</time>
      </trkpt>
      <trkpt lat="42.30476" lon="8.62737">
        <ele>-0.55</ele>
        <time>2017-06-04T08:03:33Z</time>
      </trkpt>
      <trkpt lat="42.30464" lon="8.62773">
        <ele>-0.57</ele>
        <time>2017-06-04T08:03:46Z</time>
      </trkpt>
      <trkpt lat="42.30454" lon="8.62809">
        <ele>-0.81</ele>
        <time>2017-06-04T08:03:59Z</time>
      </trkpt>
      <trkpt lat="42.30442" lon="8.62843">
        <ele>-1.05</ele>
        <time>2017-06-04T08:04:12Z</time>
      </trkpt>
      <trkpt lat="42.30429" lon="8.62866">
        <ele>-1.25</ele>
        <time>2017-06-04T08:04:23Z</time>
      </trkpt>
      <trkpt lat="42.30417" lon="8.62897">
        <ele>-1.27</ele>
        <time>2017-06-04T08:04:35Z</time>
      </trkpt>
      <trkpt lat="42.30399" lon="8.62934">
        <ele>-1.55</ele>
        <time>2017-06-04T08:04:49Z</time>
      </trkpt>
      <trkpt lat="42.30386" lon="8.6297">
        <ele>-1.65</ele>
        <time>2017-06-04T08:05:02Z</time>
      </trkpt>
      <trkpt lat="42.30372" lon="8.63003">
        <ele>-1.68</ele>
        <time>2017-06-04T08:05:15Z</time>
      </trkpt>
      <trkpt lat="42.30357" lon="8.63038">
        <ele>-1.47</ele>
        <time>2017-06-04T08:05:28Z</time>
      </trkpt>
      <trkpt lat="42.30342" lon="8.63074">
        <ele>-1.29</ele>
        <time>2017-06-04T08:05:40Z</time>
      </trkpt>
      <trkpt lat="42.30332" lon="8.63103">
        <ele>-1.34</ele>
        <time>2017-06-04T08:05:51Z</time>
      </trkpt>
      <trkpt lat="42.30316" lon="8.63135">
        <ele>-1.44</ele>
        <time>2017-06-04T08:06:04Z</time>
      </trkpt>
      <trkpt lat="42.30301" lon="8.63173">
        <ele>-1.46</ele>
        <time>2017-06-04T08:06:19Z</time>
      </trkpt>
      <trkpt lat="42.30293" lon="8.63197">
        <ele>-1.41</ele>
        <time>2017-06-04T08:06:29Z</time>
      </trkpt>
      <trkpt lat="42.30276" lon="8.63231">
        <ele>-1.25</ele>
        <time>2017-06-04T08:06:43Z</time>
      </trkpt>
      <trkpt lat="42.30252" lon="8.63259">
        <ele>-0.94</ele>
        <time>2017-06-04T08:06:56Z</time>
      </trkpt>
      <trkpt lat="42.30234" lon="8.63294">
        <ele>-0.8</ele>
        <time>2017-06-04T08:07:10Z</time>
      </trkpt>
      <trkpt lat="42.30216" lon="8.63326">
        <ele>-0.92</ele>
        <time>2017-06-04T08:07:23Z</time>
      </trkpt>
      <trkpt lat="42.30197" lon="8.63361">
        <ele>-0.88</ele>
        <time>2017-06-04T08:07:37Z</time>
      </trkpt>
      <trkpt lat="42.30177" lon="8.63396">
        <ele>-1.43</ele>
        <time>2017-06-04T08:07:51Z</time>
      </trkpt>
      <trkpt lat="42.30155" lon="8.63428">
        <ele>-1.34</ele>
        <time>2017-06-04T08:08:05Z</time>
      </trkpt>
      <trkpt lat="42.30138" lon="8.6346">
        <ele>-1.53</ele>
        <time>2017-06-04T08:08:18Z</time>
      </trkpt>
      <trkpt lat="42.30123" lon="8.6349">
        <ele>-1.4</ele>
        <time>2017-06-04T08:08:30Z</time>
      </trkpt>
      <trkpt lat="42.30115" lon="8.63525">
        <ele>-1.54</ele>
        <time>2017-06-04T08:08:43Z</time>
      </trkpt>
      <trkpt lat="42.30113" lon="8.63535">
        <ele>-1.68</ele>
        <time>2017-06-04T08:08:46Z</time>
      </trkpt>
      <trkpt lat="42.30094" lon="8.63569">
        <ele>-1.64</ele>
        <time>2017-06-04T08:08:59Z</time>
      </trkpt>
      <trkpt lat="42.30072" lon="8.636">
        <ele>-1.63</ele>
        <time>2017-06-04T08:09:12Z</time>
      </trkpt>
      <trkpt lat="42.30056" lon="8.63627">
        <ele>-1.41</ele>
        <time>2017-06-04T08:09:24Z</time>
      </trkpt>
      <trkpt lat="42.3004" lon="8.6365">
        <ele>-1.36</ele>
        <time>2017-06-04T08:09:35Z</time>
      </trkpt>
      <trkpt lat="42.30026" lon="8.63675">
        <ele>-1.3</ele>
        <time>2017-06-04T08:09:46Z</time>
      </trkpt>
      <trkpt lat="42.30005" lon="8.63707">
        <ele>-1.09</ele>
        <time>2017-06-04T08:10:00Z</time>
      </trkpt>
      <trkpt lat="42.30002" lon="8.63732">
        <ele>-1</ele>
        <time>2017-06-04T08:10:11Z</time>
      </trkpt>
      <trkpt lat="42.29999" lon="8.63744">
        <ele>-1.27</ele>
        <time>2017-06-04T08:10:15Z</time>
      </trkpt>
      <trkpt lat="42.29991" lon="8.63777">
        <ele>-1.58</ele>
        <time>2017-06-04T08:10:27Z</time>
      </trkpt>
      <trkpt lat="42.2998" lon="8.6381">
        <ele>-1.48</ele>
        <time>2017-06-04T08:10:39Z</time>
      </trkpt>
      <trkpt lat="42.29969" lon="8.63839">
        <ele>-1.39</ele>
        <time>2017-06-04T08:10:50Z</time>
      </trkpt>
      <trkpt lat="42.29956" lon="8.63864">
        <ele>-1.47</ele>
        <time>2017-06-04T08:11:00Z</time>
      </trkpt>
      <trkpt lat="42.29938" lon="8.63888">
        <ele>-1.52</ele>
        <time>2017-06-04T08:11:12Z</time>
      </trkpt>
      <trkpt lat="42.29926" lon="8.63922">
        <ele>-1.71</ele>
        <time>2017-06-04T08:11:25Z</time>
      </trkpt>
      <trkpt lat="42.29921" lon="8.63963">
        <ele>-1.31</ele>
        <time>2017-06-04T08:11:40Z</time>
      </trkpt>
      <trkpt lat="42.2992" lon="8.63993">
        <ele>-1.04</ele>
        <time>2017-06-04T08:11:53Z</time>
      </trkpt>
      <trkpt lat="42.29918" lon="8.63999">
        <ele>-1.11</ele>
        <time>2017-06-04T08:11:55Z</time>
      </trkpt>
      <trkpt lat="42.29916" lon="8.64011">
        <ele>-1.05</ele>
        <time>2017-06-04T08:12:00Z</time>
      </trkpt>
      <trkpt lat="42.29915" lon="8.64054">
        <ele>0.03</ele>
        <time>2017-06-04T08:12:14Z</time>
      </trkpt>
      <trkpt lat="42.29922" lon="8.64095">
        <ele>0.51</ele>
        <time>2017-06-04T08:12:26Z</time>
      </trkpt>
      <trkpt lat="42.29928" lon="8.64136">
        <ele>0.02</ele>
        <time>2017-06-04T08:12:40Z</time>
      </trkpt>
      <trkpt lat="42.2994" lon="8.64175">
        <ele>0.42</ele>
        <time>2017-06-04T08:12:53Z</time>
      </trkpt>
      <trkpt lat="42.29947" lon="8.64205">
        <ele>-0.01</ele>
        <time>2017-06-04T08:13:06Z</time>
      </trkpt>
      <trkpt lat="42.29948" lon="8.64214">
        <ele>-0.12</ele>
        <time>2017-06-04T08:13:11Z</time>
      </trkpt>
      <trkpt lat="42.29952" lon="8.64238">
        <ele>-0.21</ele>
        <time>2017-06-04T08:13:21Z</time>
      </trkpt>
      <trkpt lat="42.29956" lon="8.6425">
        <ele>-0.26</ele>
        <time>2017-06-04T08:13:27Z</time>
      </trkpt>
      <trkpt lat="42.29959" lon="8.64268">
        <ele>-0.62</ele>
        <time>2017-06-04T08:13:36Z</time>
      </trkpt>
      <trkpt lat="42.2996" lon="8.64273">
        <ele>-0.72</ele>
        <time>2017-06-04T08:13:38Z</time>
      </trkpt>
      <trkpt lat="42.29966" lon="8.64296">
        <ele>-0.64</ele>
        <time>2017-06-04T08:13:51Z</time>
      </trkpt>
      <trkpt lat="42.29969" lon="8.64312">
        <ele>-0.99</ele>
        <time>2017-06-04T08:14:00Z</time>
      </trkpt>
      <trkpt lat="42.29977" lon="8.64351">
        <ele>-1.14</ele>
        <time>2017-06-04T08:14:15Z</time>
      </trkpt>
      <trkpt lat="42.2998" lon="8.64387">
        <ele>-1.25</ele>
        <time>2017-06-04T08:14:30Z</time>
      </trkpt>
      <trkpt lat="42.2997" lon="8.64419">
        <ele>-0.71</ele>
        <time>2017-06-04T08:14:45Z</time>
      </trkpt>
      <trkpt lat="42.29967" lon="8.64433">
        <ele>-0.71</ele>
        <time>2017-06-04T08:14:53Z</time>
      </trkpt>
      <trkpt lat="42.29946" lon="8.64454">
        <ele>-0.41</ele>
        <time>2017-06-04T08:15:07Z</time>
      </trkpt>
      <trkpt lat="42.29942" lon="8.64459">
        <ele>-0.33</ele>
        <time>2017-06-04T08:15:11Z</time>
      </trkpt>
      <trkpt lat="42.29936" lon="8.64466">
        <ele>-0.35</ele>
        <time>2017-06-04T08:15:15Z</time>
      </trkpt>
      <trkpt lat="42.29929" lon="8.64493">
        <ele>-0.51</ele>
        <time>2017-06-04T08:15:28Z</time>
      </trkpt>
      <trkpt lat="42.29929" lon="8.64498">
        <ele>-0.55</ele>
        <time>2017-06-04T08:15:30Z</time>
      </trkpt>
      <trkpt lat="42.29933" lon="8.64511">
        <ele>-0.68</ele>
        <time>2017-06-04T08:15:36Z</time>
      </trkpt>
      <trkpt lat="42.29935" lon="8.64521">
        <ele>-0.74</ele>
        <time>2017-06-04T08:15:40Z</time>
      </trkpt>
      <trkpt lat="42.29934" lon="8.64538">
        <ele>-0.64</ele>
        <time>2017-06-04T08:15:49Z</time>
      </trkpt>
      <trkpt lat="42.29934" lon="8.64554">
        <ele>-0.64</ele>
        <time>2017-06-04T08:15:57Z</time>
      </trkpt>
      <trkpt lat="42.2994" lon="8.64571">
        <ele>-0.15</ele>
        <time>2017-06-04T08:16:08Z</time>
      </trkpt>
      <trkpt lat="42.29951" lon="8.64587">
        <ele>-0.32</ele>
        <time>2017-06-04T08:16:18Z</time>
      </trkpt>
      <trkpt lat="42.29959" lon="8.646">
        <ele>-0.38</ele>
        <time>2017-06-04T08:16:25Z</time>
      </trkpt>
      <trkpt lat="42.29983" lon="8.64628">
        <ele>-0.68</ele>
        <time>2017-06-04T08:16:40Z</time>
      </trkpt>
      <trkpt lat="42.3" lon="8.64652">
        <ele>-0.81</ele>
        <time>2017-06-04T08:16:52Z</time>
      </trkpt>
      <trkpt lat="42.3001" lon="8.64663">
        <ele>-0.79</ele>
        <time>2017-06-04T08:17:00Z</time>
      </trkpt>
      <trkpt lat="42.30022" lon="8.64673">
        <ele>-0.99</ele>
        <time>2017-06-04T08:17:07Z</time>
      </trkpt>
      <trkpt lat="42.30043" lon="8.64695">
        <ele>-0.91</ele>
        <time>2017-06-04T08:17:18Z</time>
      </trkpt>
      <trkpt lat="42.30068" lon="8.64713">
        <ele>-1.28</ele>
        <time>2017-06-04T08:17:32Z</time>
      </trkpt>
      <trkpt lat="42.30082" lon="8.64722">
        <ele>-1.15</ele>
        <time>2017-06-04T08:17:42Z</time>
      </trkpt>
      <trkpt lat="42.30108" lon="8.64726">
        <ele>-1.92</ele>
        <time>2017-06-04T08:17:56Z</time>
      </trkpt>
      <trkpt lat="42.30138" lon="8.6473">
        <ele>-2.33</ele>
        <time>2017-06-04T08:18:11Z</time>
      </trkpt>
      <trkpt lat="42.30163" lon="8.64726">
        <ele>-2.85</ele>
        <time>2017-06-04T08:18:26Z</time>
      </trkpt>
      <trkpt lat="42.30188" lon="8.64719">
        <ele>-2.63</ele>
        <time>2017-06-04T08:18:40Z</time>
      </trkpt>
      <trkpt lat="42.30205" lon="8.64711">
        <ele>-2.74</ele>
        <time>2017-06-04T08:18:50Z</time>
      </trkpt>
      <trkpt lat="42.30214" lon="8.64702">
        <ele>-1.7</ele>
        <time>2017-06-04T08:18:57Z</time>
      </trkpt>
      <trkpt lat="42.30228" lon="8.64693">
        <ele>-0.1</ele>
        <time>2017-06-04T08:19:06Z</time>
      </trkpt>
      <trkpt lat="42.3023" lon="8.64693">
        <ele>0.09</ele>
        <time>2017-06-04T08:19:07Z</time>
      </trkpt>
      <trkpt lat="42.30243" lon="8.64696">
        <ele>0.59</ele>
        <time>2017-06-04T08:19:16Z</time>
      </trkpt>
      <trkpt lat="42.30254" lon="8.64703">
        <ele>0.49</ele>
        <time>2017-06-04T08:19:23Z</time>
      </trkpt>
      <trkpt lat="42.30273" lon="8.64712">
        <ele>-0.02</ele>
        <time>2017-06-04T08:19:33Z</time>
      </trkpt>
      <trkpt lat="42.30283" lon="8.64723">
        <ele>-1</ele>
        <time>2017-06-04T08:19:42Z</time>
      </trkpt>
      <trkpt lat="42.3029" lon="8.64729">
        <ele>-1.02</ele>
        <time>2017-06-04T08:20:02Z</time>
      </trkpt>
      <trkpt lat="42.30298" lon="8.64727">
        <ele>0.13</ele>
        <time>2017-06-04T08:20:32Z</time>
      </trkpt>
      <trkpt lat="42.30303" lon="8.64722">
        <ele>0.27</ele>
        <time>2017-06-04T08:20:51Z</time>
      </trkpt>
      <trkpt lat="42.30302" lon="8.64721">
        <ele>0.35</ele>
        <time>2017-06-04T08:21:17Z</time>
      </trkpt>
      <trkpt lat="42.303" lon="8.64722">
        <ele>0.25</ele>
        <time>2017-06-04T08:21:43Z</time>
      </trkpt>
      <trkpt lat="42.303" lon="8.64718">
        <ele>-0.86</ele>
        <time>2017-06-04T08:22:18Z</time>
      </trkpt>
      <trkpt lat="42.303" lon="8.64718">
        <ele>-0.02</ele>
        <time>2017-06-04T08:22:37Z</time>
      </trkpt>
      <trkpt lat="42.30302" lon="8.64717">
        <ele>-0.38</ele>
        <time>2017-06-04T08:23:01Z</time>
      </trkpt>
      <trkpt lat="42.303" lon="8.64718">
        <ele>1.98</ele>
        <time>2017-06-04T08:23:24Z</time>
      </trkpt>
      <trkpt lat="42.303" lon="8.6472">
        <ele>1.32</ele>
        <time>2017-06-04T08:23:45Z</time>
      </trkpt>
      <trkpt lat="42.303" lon="8.64721">
        <ele>1.33</ele>
        <time>2017-06-04T08:24:18Z</time>
      </trkpt>
      <trkpt lat="42.30302" lon="8.64718">
        <ele>0.85</ele>
        <time>2017-06-04T08:24:44Z</time>
      </trkpt>
      <trkpt lat="42.30303" lon="8.64718">
        <ele>0.63</ele>
        <time>2017-06-04T08:25:12Z</time>
      </trkpt>
      <trkpt lat="42.303" lon="8.64718">
        <ele>1.09</ele>
        <time>2017-06-04T08:25:36Z</time>
      </trkpt>
      <trkpt lat="42.303" lon="8.64718">
        <ele>0.72</ele>
        <time>2017-06-04T08:26:00Z</time>
      </trkpt>
      <trkpt lat="42.30299" lon="8.64719">
        <ele>0.27</ele>
        <time>2017-06-04T08:26:30Z</time>
      </trkpt>
      <trkpt lat="42.30302" lon="8.64722">
        <ele>-0.69</ele>
        <time>2017-06-04T08:26:58Z</time>
      </trkpt>
      <trkpt lat="42.30298" lon="8.64724">
        <ele>-0.38</ele>
        <time>2017-06-04T08:27:23Z</time>
      </trkpt>
      <trkpt lat="42.30299" lon="8.64725">
        <ele>-0.07</ele>
        <time>2017-06-04T08:27:28Z</time>
      </trkpt>
      <trkpt lat="42.30301" lon="8.64724">
        <ele>-1.58</ele>
        <time>2017-06-04T08:27:35Z</time>
      </trkpt>
      <trkpt lat="42.30364" lon="8.64762">
        <ele>44.96</ele>
        <time>2017-06-04T08:44:33Z</time>
      </trkpt>
      <trkpt lat="42.30363" lon="8.64761">
        <ele>44.96</ele>
        <time>2017-06-04T08:44:34Z</time>
      </trkpt>
      <trkpt lat="42.30366" lon="8.64743">
        <ele>45.01</ele>
        <time>2017-06-04T08:44:46Z</time>
      </trkpt>
      <trkpt lat="42.30366" lon="8.64747">
        <ele>44.98</ele>
        <time>2017-06-04T08:45:08Z</time>
      </trkpt>
      <trkpt lat="42.30366" lon="8.64744">
        <ele>43.77</ele>
        <time>2017-06-04T08:45:40Z</time>
      </trkpt>
      <trkpt lat="42.30363" lon="8.64747">
        <ele>42.84</ele>
        <time>2017-06-04T08:46:12Z</time>
      </trkpt>
      <trkpt lat="42.30364" lon="8.6475">
        <ele>39.94</ele>
        <time>2017-06-04T08:46:24Z</time>
      </trkpt>
    </trkseg>
  </trk>
</gpx>